Norwalk, Iowa
Current Conditions -  °F | °C
As of 8:54 AM on Friday 31 Oct 2014 (Local Time) from KDSM Reporting Station
Clear Clear  
Wind Chill: 20°   Ceiling: Unl
Heat Index: 31°   Visibility: 10mi
Dew Point: 17°   Wind: 16mph
Humidity: 57%   Direction: 10°N
Pressure: 30.49"   Gusts: 24mph
Location:  41.48°N, 93.68°W
Report Text: KDSM 311354Z 01014G21KT 10SM CLR M01/M08 A3049 RMK AO2 SLP330 T10061083
Loading
Personal Weather Stations






























Interactive Weather Map
Tropical Storm Tracking
New forecast layout! Learn more

10-Day Weather Forecast

Advertisements
Track Severe Weather on mobile